Gladwin, MI (48624)

2:15 PM EDT on August 21, 2014 (GMT -0400)
Mills, North Midland County | Change Station
CLOSE
Current Station
Personal Weather Station
Location: Midland, MI
Elevation: 682 ft
Nearby Weather Stations

Elev 682 ft 43.81 °N, 84.23 °W | Updated 12 seconds ago

Mostly Cloudy
Mostly Cloudy
73.4 °F
Feels Like 74 °F
N
0.0
Wind Variable Wind from SE
Gusts 0.0 mph

Today
High -- | Low -- °F
--% Chance of Precip.
Yesterday
High -- | Low -- °F
Precip. -- in
6:48 AM 8:32 PM
Waning Crescent, 13% visible
Pressure 29.99 in
Visibility 10.0 miles
Clouds Mostly Cloudy 4400 ft
Heat Index 74 °F
Dew Point 65 °F
Humidity 76%
Rainfall 0.00 in
Snow Depth Not available.
UV 5 out of 12
Pollen 9.30 out of 12
Ozone Good
PM2.5 Good
Flu Activity Not available.
METAR KHTL 211753Z AUTO 26004KT 10SM BKN044 23/15 A3000 RMK AO2 SLP155 T02330150 10239 20167 55006

More Conditions Fewer Conditions

Pressure 29.99 in
Visibility 10.0 miles
Clouds Mostly Cloudy 4400 ft
Heat Index 74 °F
Dew Point 65 °F
Humidity 76%
Rainfall 0.00 in
Snow Depth Not available.
UV 5 out of 12
Pollen 9.30 out of 12
Ozone Good
PM2.5 Good
Flu Activity Not available.
METAR KHTL 211753Z AUTO 26004KT 10SM BKN044 23/15 A3000 RMK AO2 SLP155 T02330150 10239 20167 55006

More Conditions Fewer Conditions

Nowcast | as of 2:00 PM EDT on August 21, 2014

At 3 PM...partly cloudy. Temperature 78. Light winds. At 5 PM...partly cloudy. Temperature 80. Light winds. At 7 PM...partly cloudy. Temperature 77. Southeast winds 8 mph. At 9 PM...showers and thunderstorms likely. Locally heavy rainfall possible. Temperature 71. Southeast winds 8 mph.

×

10-Day Weather Forecast

Almanac

Astronomy

Aug. 21, 2014 Rise Set
Actual Time 6:48 AM EDT 8:32 PM EDT
Civil Twilight 6:17 AM EDT 9:03 PM EDT
Nautical Twilight 5:40 AM EDT 9:40 PM EDT
Astronomical Twilight 4:59 AM EDT 10:20 PM EDT
Moon 3:14 AM EDT 6:03 PM EDT
Length of Visible Light 14h 45m
Length of Day
13h 44m
Tomorrow will be 2m 48s shorter.
Waning Crescent, 13% of the Moon is Illuminated
Today
Waning Crescent
Aug 25
New
Sep 2
First Quarter
Sep 8
Full
Sep 15
Last Quarter

Today's Extremes

State Highs State Lows

Community

WunderPhotos

Upload Photos

1,745,992 photos uploaded!

WunderBlogs® & News

Nearby

Air Quality

  Air Quality AQ Index Pollutant
Yesterday Good
OZONE
Yesterday Good
PM2.5
Current Good
PM2.5
Current Good
OZONE
Thursday Good
OZONE
Thursday Good
PM2.5
Friday Moderate
PM2.5
Friday Good
OZONE
Saturday Moderate
PM2.5
Saturday Good
OZONE
Sunday Moderate
PM2.5
Sunday Good
OZONE

Snow Depth

Station Depth Elevation
No new snow has been reported.

Earthquake Activity

City Distance Mag. Time & Date
No recent earthquake activity has been reported nearby.
Minimum magnitude displayed is 2.5.

Coastal Water Temperatures

Place Temperature
Harbor Beach, MI 71.1 °F

Nearby Weather Stations